Butter Tubs Pass, United Kingdom
Current Conditions -  °F | °C
As of 8:50 AM on Monday 22 Dec 2014 (Local Time) from EGXE Reporting Station
Rain Showers Rain Showers  
Wind Chill: 55°   Ceiling: Unl
Heat Index: 55°   Visibility: 6mi
Dew Point: 50°   Wind: 31mph
Humidity: 82%   Direction: 260°W
Pressure: 29.65"   Gusts: 53mph
Location:  54.37°N, 2.2°W
Report Text: EGXE 220850Z AUTO 26027G46KT 9999 -SHRA FEW027/// 13/10 Q1004
Loading
Personal Weather Stations






























Interactive Weather Map New forecast layout! Learn more

10-Day Weather Forecast

Advertisements
Track Severe Weather on mobile